sensor_id;sensor_type;location;lat;lon;timestamp;P1;durP1;ratioP1;P2;durP2;ratioP2
17595;SDS011;8916;47.086;15.920;2022-11-20T00:01:52;96.65;;;40.20;;
17595;SDS011;8916;47.086;15.920;2022-11-20T00:04:21;95.85;;;40.15;;
17595;SDS011;8916;47.086;15.920;2022-11-20T00:06:50;96.68;;;39.88;;
17595;SDS011;8916;47.086;15.920;2022-11-20T00:09:19;97.90;;;39.90;;
17595;SDS011;8916;47.086;15.920;2022-11-20T00:11:50;96.05;;;39.13;;
17595;SDS011;8916;47.086;15.920;2022-11-20T00:14:19;94.00;;;40.47;;
17595;SDS011;8916;47.086;15.920;2022-11-20T00:16:48;92.72;;;38.33;;
17595;SDS011;8916;47.086;15.920;2022-11-20T00:19:17;89.57;;;37.03;;
17595;SDS011;8916;47.086;15.920;2022-11-20T00:21:47;92.43;;;37.50;;
17595;SDS011;8916;47.086;15.920;2022-11-20T00:24:18;85.35;;;36.47;;
17595;SDS011;8916;47.086;15.920;2022-11-20T00:26:47;92.60;;;38.65;;
17595;SDS011;8916;47.086;15.920;2022-11-20T00:29:18;85.22;;;36.30;;
17595;SDS011;8916;47.086;15.920;2022-11-20T00:31:47;94.80;;;40.00;;
17595;SDS011;8916;47.086;15.920;2022-11-20T00:34:16;85.55;;;35.85;;
17595;SDS011;8916;47.086;15.920;2022-11-20T00:36:45;95.10;;;37.78;;
17595;SDS011;8916;47.086;15.920;2022-11-20T00:39:14;98.40;;;38.80;;
17595;SDS011;8916;47.086;15.920;2022-11-20T00:41:43;96.15;;;39.15;;
17595;SDS011;8916;47.086;15.920;2022-11-20T00:44:12;99.50;;;40.38;;
17595;SDS011;8916;47.086;15.920;2022-11-20T00:46:43;96.00;;;38.08;;
17595;SDS011;8916;47.086;15.920;2022-11-20T00:49:12;94.70;;;36.38;;
17595;SDS011;8916;47.086;15.920;2022-11-20T00:51:41;91.40;;;38.22;;
17595;SDS011;8916;47.086;15.920;2022-11-20T00:54:10;87.28;;;37.22;;
17595;SDS011;8916;47.086;15.920;2022-11-20T00:56:39;86.32;;;35.53;;
17595;SDS011;8916;47.086;15.920;2022-11-20T00:59:08;92.00;;;38.13;;
17595;SDS011;8916;47.086;15.920;2022-11-20T01:01:38;88.15;;;35.63;;
17595;SDS011;8916;47.086;15.920;2022-11-20T01:04:08;83.63;;;36.10;;
17595;SDS011;8916;47.086;15.920;2022-11-20T01:06:38;96.55;;;37.53;;
17595;SDS011;8916;47.086;15.920;2022-11-20T01:09:10;90.15;;;36.38;;
17595;SDS011;8916;47.086;15.920;2022-11-20T01:11:42;88.70;;;36.15;;
17595;SDS011;8916;47.086;15.920;2022-11-20T01:14:13;86.72;;;37.38;;
17595;SDS011;8916;47.086;15.920;2022-11-20T01:16:45;94.43;;;38.08;;
17595;SDS011;8916;47.086;15.920;2022-11-20T01:19:19;90.57;;;35.53;;
17595;SDS011;8916;47.086;15.920;2022-11-20T01:21:52;91.40;;;36.55;;
17595;SDS011;8916;47.086;15.920;2022-11-20T01:24:22;86.35;;;36.58;;
17595;SDS011;8916;47.086;15.920;2022-11-20T01:26:51;89.80;;;35.58;;
17595;SDS011;8916;47.086;15.920;2022-11-20T01:29:21;87.28;;;35.33;;
17595;SDS011;8916;47.086;15.920;2022-11-20T01:31:52;88.60;;;34.63;;
17595;SDS011;8916;47.086;15.920;2022-11-20T01:34:22;87.80;;;36.13;;
17595;SDS011;8916;47.086;15.920;2022-11-20T01:36:52;86.35;;;35.85;;
17595;SDS011;8916;47.086;15.920;2022-11-20T01:39:22;86.35;;;36.13;;
17595;SDS011;8916;47.086;15.920;2022-11-20T01:41:53;95.43;;;38.10;;
17595;SDS011;8916;47.086;15.920;2022-11-20T01:44:51;93.03;;;36.72;;
17595;SDS011;8916;47.086;15.920;2022-11-20T01:47:24;92.00;;;37.67;;
17595;SDS011;8916;47.086;15.920;2022-11-20T01:50:01;82.90;;;34.63;;
17595;SDS011;8916;47.086;15.920;2022-11-20T01:52:37;86.55;;;35.08;;
17595;SDS011;8916;47.086;15.920;2022-11-20T01:55:11;90.97;;;35.80;;
17595;SDS011;8916;47.086;15.920;2022-11-20T01:57:45;90.57;;;36.80;;
17595;SDS011;8916;47.086;15.920;2022-11-20T02:00:17;92.28;;;38.08;;
17595;SDS011;8916;47.086;15.920;2022-11-20T02:02:49;91.93;;;37.85;;
17595;SDS011;8916;47.086;15.920;2022-11-20T02:05:24;87.82;;;36.20;;
17595;SDS011;8916;47.086;15.920;2022-11-20T02:07:59;90.63;;;35.97;;
17595;SDS011;8916;47.086;15.920;2022-11-20T02:10:30;91.10;;;36.20;;
17595;SDS011;8916;47.086;15.920;2022-11-20T02:13:00;92.43;;;38.05;;
17595;SDS011;8916;47.086;15.920;2022-11-20T02:15:46;90.32;;;37.20;;
17595;SDS011;8916;47.086;15.920;2022-11-20T02:18:17;88.07;;;36.60;;
17595;SDS011;8916;47.086;15.920;2022-11-20T02:20:50;83.70;;;34.80;;
17595;SDS011;8916;47.086;15.920;2022-11-20T02:23:28;92.05;;;37.22;;
17595;SDS011;8916;47.086;15.920;2022-11-20T02:26:03;97.75;;;38.53;;
17595;SDS011;8916;47.086;15.920;2022-11-20T02:28:37;102.85;;;38.72;;
17595;SDS011;8916;47.086;15.920;2022-11-20T02:31:06;99.22;;;39.90;;
17595;SDS011;8916;47.086;15.920;2022-11-20T02:33:35;94.70;;;37.97;;
17595;SDS011;8916;47.086;15.920;2022-11-20T02:36:04;90.22;;;35.75;;
17595;SDS011;8916;47.086;15.920;2022-11-20T02:38:36;91.10;;;35.50;;
17595;SDS011;8916;47.086;15.920;2022-11-20T02:41:07;87.68;;;35.13;;
17595;SDS011;8916;47.086;15.920;2022-11-20T02:43:36;86.75;;;35.10;;
17595;SDS011;8916;47.086;15.920;2022-11-20T02:46:07;84.55;;;36.30;;
17595;SDS011;8916;47.086;15.920;2022-11-20T02:48:36;77.55;;;33.30;;
17595;SDS011;8916;47.086;15.920;2022-11-20T02:51:05;77.30;;;32.38;;
17595;SDS011;8916;47.086;15.920;2022-11-20T02:53:34;86.65;;;33.38;;
17595;SDS011;8916;47.086;15.920;2022-11-20T02:56:04;84.38;;;33.70;;
17595;SDS011;8916;47.086;15.920;2022-11-20T02:58:35;82.47;;;32.17;;
17595;SDS011;8916;47.086;15.920;2022-11-20T03:01:05;82.15;;;32.92;;
17595;SDS011;8916;47.086;15.920;2022-11-20T03:03:33;84.40;;;33.70;;
17595;SDS011;8916;47.086;15.920;2022-11-20T03:06:03;84.15;;;33.83;;
17595;SDS011;8916;47.086;15.920;2022-11-20T03:08:32;85.25;;;34.58;;
17595;SDS011;8916;47.086;15.920;2022-11-20T03:11:02;90.88;;;35.55;;
17595;SDS011;8916;47.086;15.920;2022-11-20T03:13:34;85.20;;;34.60;;
17595;SDS011;8916;47.086;15.920;2022-11-20T03:16:10;89.85;;;34.92;;
17595;SDS011;8916;47.086;15.920;2022-11-20T03:18:42;84.07;;;34.13;;
17595;SDS011;8916;47.086;15.920;2022-11-20T03:21:12;80.68;;;33.70;;
17595;SDS011;8916;47.086;15.920;2022-11-20T03:23:42;78.03;;;32.53;;
17595;SDS011;8916;47.086;15.920;2022-11-20T03:26:12;82.85;;;33.25;;
17595;SDS011;8916;47.086;15.920;2022-11-20T03:28:47;78.45;;;33.17;;
17595;SDS011;8916;47.086;15.920;2022-11-20T03:31:20;81.40;;;33.97;;
17595;SDS011;8916;47.086;15.920;2022-11-20T03:33:51;78.18;;;33.05;;
17595;SDS011;8916;47.086;15.920;2022-11-20T03:36:20;85.40;;;32.80;;
17595;SDS011;8916;47.086;15.920;2022-11-20T03:38:49;76.05;;;31.20;;
17595;SDS011;8916;47.086;15.920;2022-11-20T03:41:19;79.13;;;34.40;;
17595;SDS011;8916;47.086;15.920;2022-11-20T03:43:51;87.85;;;33.72;;
17595;SDS011;8916;47.086;15.920;2022-11-20T03:46:22;91.45;;;35.38;;
17595;SDS011;8916;47.086;15.920;2022-11-20T03:48:52;92.85;;;36.75;;
17595;SDS011;8916;47.086;15.920;2022-11-20T03:51:22;99.95;;;37.03;;
17595;SDS011;8916;47.086;15.920;2022-11-20T03:53:53;98.45;;;36.67;;
17595;SDS011;8916;47.086;15.920;2022-11-20T03:56:25;119.00;;;39.30;;
17595;SDS011;8916;47.086;15.920;2022-11-20T03:58:57;103.55;;;37.13;;
17595;SDS011;8916;47.086;15.920;2022-11-20T04:01:27;118.82;;;37.90;;
17595;SDS011;8916;47.086;15.920;2022-11-20T04:03:59;118.28;;;40.20;;
17595;SDS011;8916;47.086;15.920;2022-11-20T04:06:29;113.72;;;39.08;;
17595;SDS011;8916;47.086;15.920;2022-11-20T04:09:02;98.15;;;35.17;;
17595;SDS011;8916;47.086;15.920;2022-11-20T04:11:33;85.82;;;33.53;;
17595;SDS011;8916;47.086;15.920;2022-11-20T04:14:05;85.25;;;32.92;;
17595;SDS011;8916;47.086;15.920;2022-11-20T04:16:41;83.82;;;31.88;;
17595;SDS011;8916;47.086;15.920;2022-11-20T04:19:11;83.10;;;30.65;;
17595;SDS011;8916;47.086;15.920;2022-11-20T04:21:43;80.07;;;31.85;;
17595;SDS011;8916;47.086;15.920;2022-11-20T04:24:12;71.35;;;30.23;;
17595;SDS011;8916;47.086;15.920;2022-11-20T04:26:41;69.28;;;29.00;;
17595;SDS011;8916;47.086;15.920;2022-11-20T04:29:12;70.32;;;29.77;;
17595;SDS011;8916;47.086;15.920;2022-11-20T04:31:41;58.85;;;26.65;;
17595;SDS011;8916;47.086;15.920;2022-11-20T04:34:10;66.38;;;28.38;;
17595;SDS011;8916;47.086;15.920;2022-11-20T04:36:40;72.43;;;30.63;;
17595;SDS011;8916;47.086;15.920;2022-11-20T04:39:13;69.30;;;30.30;;
17595;SDS011;8916;47.086;15.920;2022-11-20T04:41:44;65.53;;;28.73;;
17595;SDS011;8916;47.086;15.920;2022-11-20T04:44:14;69.95;;;29.13;;
17595;SDS011;8916;47.086;15.920;2022-11-20T04:46:43;71.75;;;30.52;;
17595;SDS011;8916;47.086;15.920;2022-11-20T04:49:12;70.97;;;30.55;;
17595;SDS011;8916;47.086;15.920;2022-11-20T04:51:41;68.20;;;28.85;;
17595;SDS011;8916;47.086;15.920;2022-11-20T04:54:10;70.18;;;30.60;;
17595;SDS011;8916;47.086;15.920;2022-11-20T04:56:39;68.38;;;29.90;;
17595;SDS011;8916;47.086;15.920;2022-11-20T04:59:08;68.68;;;28.65;;
17595;SDS011;8916;47.086;15.920;2022-11-20T05:01:39;67.57;;;29.05;;
17595;SDS011;8916;47.086;15.920;2022-11-20T05:04:08;68.55;;;29.23;;
17595;SDS011;8916;47.086;15.920;2022-11-20T05:06:37;70.15;;;29.58;;
17595;SDS011;8916;47.086;15.920;2022-11-20T05:09:06;71.97;;;28.90;;
17595;SDS011;8916;47.086;15.920;2022-11-20T05:11:35;73.80;;;30.27;;
17595;SDS011;8916;47.086;15.920;2022-11-20T05:14:04;69.38;;;29.63;;
17595;SDS011;8916;47.086;15.920;2022-11-20T05:16:33;70.05;;;29.55;;
17595;SDS011;8916;47.086;15.920;2022-11-20T05:19:04;68.05;;;29.25;;
17595;SDS011;8916;47.086;15.920;2022-11-20T05:21:33;71.32;;;29.95;;
17595;SDS011;8916;47.086;15.920;2022-11-20T05:24:02;71.63;;;29.92;;
17595;SDS011;8916;47.086;15.920;2022-11-20T05:26:32;67.75;;;28.98;;
17595;SDS011;8916;47.086;15.920;2022-11-20T05:29:01;67.90;;;29.23;;
17595;SDS011;8916;47.086;15.920;2022-11-20T05:31:30;67.05;;;27.33;;
17595;SDS011;8916;47.086;15.920;2022-11-20T05:33:59;67.90;;;29.67;;
17595;SDS011;8916;47.086;15.920;2022-11-20T05:36:30;67.57;;;28.60;;
17595;SDS011;8916;47.086;15.920;2022-11-20T05:38:59;65.30;;;27.77;;
17595;SDS011;8916;47.086;15.920;2022-11-20T05:41:28;66.15;;;27.67;;
17595;SDS011;8916;47.086;15.920;2022-11-20T05:43:57;67.95;;;27.92;;
17595;SDS011;8916;47.086;15.920;2022-11-20T05:46:26;65.55;;;28.13;;
17595;SDS011;8916;47.086;15.920;2022-11-20T05:48:56;62.33;;;27.77;;
17595;SDS011;8916;47.086;15.920;2022-11-20T05:51:26;66.20;;;28.77;;
17595;SDS011;8916;47.086;15.920;2022-11-20T05:53:57;67.90;;;28.45;;
17595;SDS011;8916;47.086;15.920;2022-11-20T05:56:26;75.03;;;29.08;;
17595;SDS011;8916;47.086;15.920;2022-11-20T05:58:55;73.50;;;30.75;;
17595;SDS011;8916;47.086;15.920;2022-11-20T06:01:25;78.55;;;30.90;;
17595;SDS011;8916;47.086;15.920;2022-11-20T06:03:54;79.78;;;30.02;;
17595;SDS011;8916;47.086;15.920;2022-11-20T06:06:23;79.57;;;30.95;;
17595;SDS011;8916;47.086;15.920;2022-11-20T06:08:53;84.93;;;33.55;;
17595;SDS011;8916;47.086;15.920;2022-11-20T06:11:24;85.10;;;32.08;;
17595;SDS011;8916;47.086;15.920;2022-11-20T06:13:54;83.70;;;31.08;;
17595;SDS011;8916;47.086;15.920;2022-11-20T06:16:23;84.15;;;32.70;;
17595;SDS011;8916;47.086;15.920;2022-11-20T06:18:52;91.57;;;35.63;;
17595;SDS011;8916;47.086;15.920;2022-11-20T06:21:21;96.18;;;35.65;;
17595;SDS011;8916;47.086;15.920;2022-11-20T06:23:51;82.65;;;33.03;;
17595;SDS011;8916;47.086;15.920;2022-11-20T06:26:22;82.50;;;33.55;;
17595;SDS011;8916;47.086;15.920;2022-11-20T06:28:54;81.28;;;33.72;;
17595;SDS011;8916;47.086;15.920;2022-11-20T06:31:24;80.38;;;34.17;;
17595;SDS011;8916;47.086;15.920;2022-11-20T06:33:54;74.43;;;30.42;;
17595;SDS011;8916;47.086;15.920;2022-11-20T06:36:23;72.47;;;31.20;;
17595;SDS011;8916;47.086;15.920;2022-11-20T06:38:52;74.20;;;29.52;;
17595;SDS011;8916;47.086;15.920;2022-11-20T06:41:21;73.85;;;30.45;;
17595;SDS011;8916;47.086;15.920;2022-11-20T06:43:52;65.55;;;27.95;;
17595;SDS011;8916;47.086;15.920;2022-11-20T06:46:21;69.28;;;29.25;;
17595;SDS011;8916;47.086;15.920;2022-11-20T06:48:50;65.68;;;27.42;;
17595;SDS011;8916;47.086;15.920;2022-11-20T06:51:19;64.22;;;29.30;;
17595;SDS011;8916;47.086;15.920;2022-11-20T06:53:48;63.28;;;27.42;;
17595;SDS011;8916;47.086;15.920;2022-11-20T06:56:17;67.38;;;28.70;;
17595;SDS011;8916;47.086;15.920;2022-11-20T06:58:46;69.72;;;29.08;;
17595;SDS011;8916;47.086;15.920;2022-11-20T07:01:16;61.42;;;26.70;;
17595;SDS011;8916;47.086;15.920;2022-11-20T07:03:48;58.63;;;27.17;;
17595;SDS011;8916;47.086;15.920;2022-11-20T07:06:20;62.60;;;27.67;;
17595;SDS011;8916;47.086;15.920;2022-11-20T07:08:50;61.55;;;27.80;;
17595;SDS011;8916;47.086;15.920;2022-11-20T07:11:19;60.28;;;27.80;;
17595;SDS011;8916;47.086;15.920;2022-11-20T07:13:48;65.05;;;28.38;;
17595;SDS011;8916;47.086;15.920;2022-11-20T07:16:19;64.82;;;27.63;;
17595;SDS011;8916;47.086;15.920;2022-11-20T07:18:48;55.70;;;25.42;;
17595;SDS011;8916;47.086;15.920;2022-11-20T07:21:17;59.10;;;26.33;;
17595;SDS011;8916;47.086;15.920;2022-11-20T07:23:46;55.42;;;26.15;;
17595;SDS011;8916;47.086;15.920;2022-11-20T07:26:15;50.33;;;25.38;;
17595;SDS011;8916;47.086;15.920;2022-11-20T07:28:44;60.92;;;26.33;;
17595;SDS011;8916;47.086;15.920;2022-11-20T07:31:14;53.85;;;24.77;;
17595;SDS011;8916;47.086;15.920;2022-11-20T07:33:47;50.72;;;24.17;;
17595;SDS011;8916;47.086;15.920;2022-11-20T07:36:16;54.60;;;24.73;;
17595;SDS011;8916;47.086;15.920;2022-11-20T07:38:45;51.65;;;23.75;;
17595;SDS011;8916;47.086;15.920;2022-11-20T07:41:14;49.30;;;23.52;;
17595;SDS011;8916;47.086;15.920;2022-11-20T07:43:43;51.28;;;25.55;;
17595;SDS011;8916;47.086;15.920;2022-11-20T07:46:12;53.78;;;25.58;;
17595;SDS011;8916;47.086;15.920;2022-11-20T07:48:41;49.38;;;23.13;;
17595;SDS011;8916;47.086;15.920;2022-11-20T07:51:12;53.08;;;26.42;;
17595;SDS011;8916;47.086;15.920;2022-11-20T07:53:41;50.03;;;23.77;;
17595;SDS011;8916;47.086;15.920;2022-11-20T07:56:10;56.60;;;27.48;;
17595;SDS011;8916;47.086;15.920;2022-11-20T07:58:41;55.58;;;26.80;;
17595;SDS011;8916;47.086;15.920;2022-11-20T08:01:10;45.60;;;22.10;;
17595;SDS011;8916;47.086;15.920;2022-11-20T08:03:39;43.75;;;22.38;;
17595;SDS011;8916;47.086;15.920;2022-11-20T08:06:08;48.70;;;22.88;;
17595;SDS011;8916;47.086;15.920;2022-11-20T08:08:38;44.90;;;22.48;;
17595;SDS011;8916;47.086;15.920;2022-11-20T08:11:09;41.47;;;21.52;;
17595;SDS011;8916;47.086;15.920;2022-11-20T08:13:56;44.30;;;22.77;;
17595;SDS011;8916;47.086;15.920;2022-11-20T08:16:41;39.38;;;20.40;;
17595;SDS011;8916;47.086;15.920;2022-11-20T08:19:12;40.17;;;20.98;;
17595;SDS011;8916;47.086;15.920;2022-11-20T08:21:42;43.20;;;21.25;;
17595;SDS011;8916;47.086;15.920;2022-11-20T08:24:14;36.75;;;20.25;;
17595;SDS011;8916;47.086;15.920;2022-11-20T08:26:43;39.13;;;19.98;;
17595;SDS011;8916;47.086;15.920;2022-11-20T08:29:13;35.45;;;19.55;;
17595;SDS011;8916;47.086;15.920;2022-11-20T08:31:43;37.65;;;19.77;;
17595;SDS011;8916;47.086;15.920;2022-11-20T08:34:12;36.03;;;18.40;;
17595;SDS011;8916;47.086;15.920;2022-11-20T08:36:45;37.63;;;18.92;;
17595;SDS011;8916;47.086;15.920;2022-11-20T08:39:16;35.72;;;20.08;;
17595;SDS011;8916;47.086;15.920;2022-11-20T08:41:45;33.17;;;18.83;;
17595;SDS011;8916;47.086;15.920;2022-11-20T08:44:14;33.83;;;19.08;;
17595;SDS011;8916;47.086;15.920;2022-11-20T08:46:44;36.58;;;19.70;;
17595;SDS011;8916;47.086;15.920;2022-11-20T08:49:14;41.10;;;19.77;;
17595;SDS011;8916;47.086;15.920;2022-11-20T08:51:45;39.70;;;19.65;;
17595;SDS011;8916;47.086;15.920;2022-11-20T08:54:20;37.72;;;18.98;;
17595;SDS011;8916;47.086;15.920;2022-11-20T08:56:49;35.38;;;18.35;;
17595;SDS011;8916;47.086;15.920;2022-11-20T08:59:19;36.10;;;18.48;;
17595;SDS011;8916;47.086;15.920;2022-11-20T09:02:09;34.90;;;17.52;;
17595;SDS011;8916;47.086;15.920;2022-11-20T09:04:39;33.72;;;17.67;;
17595;SDS011;8916;47.086;15.920;2022-11-20T09:07:08;36.00;;;18.98;;
17595;SDS011;8916;47.086;15.920;2022-11-20T09:09:39;32.95;;;17.75;;
17595;SDS011;8916;47.086;15.920;2022-11-20T09:12:08;34.30;;;17.77;;
17595;SDS011;8916;47.086;15.920;2022-11-20T09:14:44;31.25;;;17.13;;
17595;SDS011;8916;47.086;15.920;2022-11-20T09:17:20;32.17;;;17.55;;
17595;SDS011;8916;47.086;15.920;2022-11-20T09:19:50;31.73;;;17.00;;
17595;SDS011;8916;47.086;15.920;2022-11-20T09:22:19;29.88;;;16.52;;
17595;SDS011;8916;47.086;15.920;2022-11-20T09:24:50;25.63;;;15.85;;
17595;SDS011;8916;47.086;15.920;2022-11-20T09:27:19;30.05;;;16.65;;
17595;SDS011;8916;47.086;15.920;2022-11-20T09:29:49;30.63;;;16.50;;
17595;SDS011;8916;47.086;15.920;2022-11-20T09:32:18;34.47;;;18.48;;
17595;SDS011;8916;47.086;15.920;2022-11-20T09:34:47;31.40;;;18.10;;
17595;SDS011;8916;47.086;15.920;2022-11-20T09:37:17;33.25;;;17.63;;
17595;SDS011;8916;47.086;15.920;2022-11-20T09:39:46;30.02;;;17.15;;
17595;SDS011;8916;47.086;15.920;2022-11-20T09:45:16;30.67;;;16.60;;
17595;SDS011;8916;47.086;15.920;2022-11-20T09:48:01;31.58;;;17.58;;
17595;SDS011;8916;47.086;15.920;2022-11-20T09:51:00;31.35;;;17.58;;
17595;SDS011;8916;47.086;15.920;2022-11-20T09:53:45;32.13;;;17.80;;
17595;SDS011;8916;47.086;15.920;2022-11-20T09:56:25;30.10;;;17.67;;
17595;SDS011;8916;47.086;15.920;2022-11-20T09:58:59;30.48;;;17.13;;
17595;SDS011;8916;47.086;15.920;2022-11-20T10:01:34;28.23;;;17.17;;
17595;SDS011;8916;47.086;15.920;2022-11-20T10:04:09;30.15;;;17.15;;
17595;SDS011;8916;47.086;15.920;2022-11-20T10:06:47;28.50;;;16.65;;
17595;SDS011;8916;47.086;15.920;2022-11-20T10:09:45;28.60;;;15.63;;
17595;SDS011;8916;47.086;15.920;2022-11-20T10:12:23;30.13;;;16.83;;
17595;SDS011;8916;47.086;15.920;2022-11-20T10:15:18;27.98;;;16.38;;
17595;SDS011;8916;47.086;15.920;2022-11-20T10:18:01;26.13;;;15.82;;
17595;SDS011;8916;47.086;15.920;2022-11-20T10:20:44;26.38;;;15.98;;
17595;SDS011;8916;47.086;15.920;2022-11-20T10:23:28;27.42;;;16.42;;
17595;SDS011;8916;47.086;15.920;2022-11-20T10:26:16;24.45;;;14.98;;
17595;SDS011;8916;47.086;15.920;2022-11-20T10:28:56;26.45;;;15.85;;
17595;SDS011;8916;47.086;15.920;2022-11-20T10:31:39;26.73;;;15.15;;
17595;SDS011;8916;47.086;15.920;2022-11-20T10:34:14;25.77;;;13.70;;
17595;SDS011;8916;47.086;15.920;2022-11-20T10:36:52;21.70;;;13.32;;
17595;SDS011;8916;47.086;15.920;2022-11-20T10:39:29;21.08;;;13.02;;
17595;SDS011;8916;47.086;15.920;2022-11-20T10:42:03;23.13;;;13.95;;
17595;SDS011;8916;47.086;15.920;2022-11-20T10:44:40;26.65;;;13.85;;
17595;SDS011;8916;47.086;15.920;2022-11-20T10:47:37;21.90;;;12.65;;
17595;SDS011;8916;47.086;15.920;2022-11-20T10:50:09;19.05;;;11.40;;
17595;SDS011;8916;47.086;15.920;2022-11-20T10:52:51;24.17;;;12.90;;
17595;SDS011;8916;47.086;15.920;2022-11-20T10:55:33;18.23;;;11.23;;
17595;SDS011;8916;47.086;15.920;2022-11-20T11:00:44;17.42;;;10.15;;
17595;SDS011;8916;47.086;15.920;2022-11-20T11:03:19;21.90;;;11.15;;
17595;SDS011;8916;47.086;15.920;2022-11-20T11:05:56;20.73;;;12.15;;
17595;SDS011;8916;47.086;15.920;2022-11-20T11:08:36;22.27;;;13.35;;
17595;SDS011;8916;47.086;15.920;2022-11-20T11:11:13;24.30;;;13.82;;
17595;SDS011;8916;47.086;15.920;2022-11-20T11:13:50;19.48;;;12.00;;
17595;SDS011;8916;47.086;15.920;2022-11-20T11:16:20;20.05;;;11.23;;
17595;SDS011;8916;47.086;15.920;2022-11-20T11:19:02;18.02;;;10.75;;
17595;SDS011;8916;47.086;15.920;2022-11-20T11:21:33;21.05;;;11.05;;
17595;SDS011;8916;47.086;15.920;2022-11-20T11:24:14;19.25;;;11.30;;
17595;SDS011;8916;47.086;15.920;2022-11-20T11:27:11;19.73;;;12.18;;
17595;SDS011;8916;47.086;15.920;2022-11-20T11:29:45;22.25;;;12.55;;
17595;SDS011;8916;47.086;15.920;2022-11-20T11:32:15;23.98;;;12.98;;
17595;SDS011;8916;47.086;15.920;2022-11-20T11:35:00;23.83;;;12.55;;
17595;SDS011;8916;47.086;15.920;2022-11-20T11:37:32;22.75;;;13.50;;
17595;SDS011;8916;47.086;15.920;2022-11-20T11:40:04;23.90;;;13.85;;
17595;SDS011;8916;47.086;15.920;2022-11-20T11:42:52;26.40;;;14.43;;
17595;SDS011;8916;47.086;15.920;2022-11-20T11:45:25;23.55;;;13.75;;
17595;SDS011;8916;47.086;15.920;2022-11-20T11:47:55;28.40;;;15.50;;
17595;SDS011;8916;47.086;15.920;2022-11-20T11:50:34;32.33;;;16.20;;
17595;SDS011;8916;47.086;15.920;2022-11-20T11:53:06;27.55;;;14.93;;
17595;SDS011;8916;47.086;15.920;2022-11-20T11:55:42;28.95;;;14.90;;
17595;SDS011;8916;47.086;15.920;2022-11-20T11:58:16;27.05;;;15.60;;
17595;SDS011;8916;47.086;15.920;2022-11-20T12:00:58;33.10;;;16.38;;
17595;SDS011;8916;47.086;15.920;2022-11-20T12:03:34;26.23;;;14.93;;
17595;SDS011;8916;47.086;15.920;2022-11-20T12:06:11;30.40;;;16.38;;
17595;SDS011;8916;47.086;15.920;2022-11-20T12:08:43;27.13;;;14.55;;
17595;SDS011;8916;47.086;15.920;2022-11-20T12:11:18;27.98;;;15.32;;
17595;SDS011;8916;47.086;15.920;2022-11-20T12:13:53;25.92;;;15.10;;
17595;SDS011;8916;47.086;15.920;2022-11-20T12:16:30;25.52;;;14.90;;
17595;SDS011;8916;47.086;15.920;2022-11-20T12:19:04;27.00;;;14.30;;
17595;SDS011;8916;47.086;15.920;2022-11-20T12:21:43;26.55;;;14.32;;
17595;SDS011;8916;47.086;15.920;2022-11-20T12:24:40;23.85;;;13.07;;
17595;SDS011;8916;47.086;15.920;2022-11-20T12:27:32;26.88;;;13.93;;
17595;SDS011;8916;47.086;15.920;2022-11-20T12:30:27;21.58;;;12.63;;
17595;SDS011;8916;47.086;15.920;2022-11-20T12:36:39;21.03;;;11.73;;
17595;SDS011;8916;47.086;15.920;2022-11-20T12:39:30;23.55;;;12.73;;
17595;SDS011;8916;47.086;15.920;2022-11-20T12:42:07;20.30;;;12.40;;
17595;SDS011;8916;47.086;15.920;2022-11-20T12:45:27;22.20;;;12.63;;
17595;SDS011;8916;47.086;15.920;2022-11-20T12:48:41;20.40;;;12.02;;
17595;SDS011;8916;47.086;15.920;2022-11-20T12:58:11;24.25;;;12.40;;
17595;SDS011;8916;47.086;15.920;2022-11-20T13:00:56;21.57;;;11.33;;
17595;SDS011;8916;47.086;15.920;2022-11-20T13:03:40;17.42;;;10.48;;
17595;SDS011;8916;47.086;15.920;2022-11-20T13:06:18;18.67;;;10.75;;
17595;SDS011;8916;47.086;15.920;2022-11-20T13:08:55;17.87;;;10.30;;
17595;SDS011;8916;47.086;15.920;2022-11-20T13:11:25;15.45;;;9.75;;
17595;SDS011;8916;47.086;15.920;2022-11-20T13:14:12;21.42;;;11.00;;
17595;SDS011;8916;47.086;15.920;2022-11-20T13:16:54;18.58;;;11.25;;
17595;SDS011;8916;47.086;15.920;2022-11-20T13:19:32;21.38;;;10.48;;
17595;SDS011;8916;47.086;15.920;2022-11-20T13:22:02;17.45;;;9.68;;
17595;SDS011;8916;47.086;15.920;2022-11-20T13:24:32;15.82;;;10.40;;
17595;SDS011;8916;47.086;15.920;2022-11-20T13:30:00;13.02;;;8.70;;
17595;SDS011;8916;47.086;15.920;2022-11-20T13:32:47;16.40;;;10.40;;
17595;SDS011;8916;47.086;15.920;2022-11-20T13:35:29;17.38;;;10.75;;
17595;SDS011;8916;47.086;15.920;2022-11-20T13:38:01;16.80;;;10.40;;
17595;SDS011;8916;47.086;15.920;2022-11-20T13:40:37;15.38;;;10.52;;
17595;SDS011;8916;47.086;15.920;2022-11-20T13:43:19;18.92;;;11.27;;
17595;SDS011;8916;47.086;15.920;2022-11-20T13:45:56;15.73;;;10.40;;
17595;SDS011;8916;47.086;15.920;2022-11-20T13:48:29;15.43;;;9.60;;
17595;SDS011;8916;47.086;15.920;2022-11-20T13:51:04;13.50;;;9.23;;
17595;SDS011;8916;47.086;15.920;2022-11-20T13:57:08;16.80;;;10.82;;
17595;SDS011;8916;47.086;15.920;2022-11-20T13:59:55;15.57;;;9.43;;
17595;SDS011;8916;47.086;15.920;2022-11-20T14:02:36;11.20;;;7.60;;
17595;SDS011;8916;47.086;15.920;2022-11-20T14:05:06;11.45;;;7.97;;
17595;SDS011;8916;47.086;15.920;2022-11-20T14:07:49;14.10;;;9.27;;
17595;SDS011;8916;47.086;15.920;2022-11-20T14:10:22;13.35;;;9.63;;
17595;SDS011;8916;47.086;15.920;2022-11-20T14:13:09;18.58;;;10.95;;
17595;SDS011;8916;47.086;15.920;2022-11-20T14:15:39;14.63;;;9.98;;
17595;SDS011;8916;47.086;15.920;2022-11-20T14:18:12;15.65;;;9.20;;
17595;SDS011;8916;47.086;15.920;2022-11-20T14:20:47;13.25;;;8.50;;
17595;SDS011;8916;47.086;15.920;2022-11-20T14:23:23;12.73;;;8.93;;
17595;SDS011;8916;47.086;15.920;2022-11-20T14:25:56;11.15;;;7.90;;
17595;SDS011;8916;47.086;15.920;2022-11-20T14:28:27;10.43;;;7.30;;
17595;SDS011;8916;47.086;15.920;2022-11-20T14:30:59;10.65;;;7.47;;
17595;SDS011;8916;47.086;15.920;2022-11-20T14:33:28;11.73;;;7.63;;
17595;SDS011;8916;47.086;15.920;2022-11-20T14:36:00;13.32;;;8.07;;
17595;SDS011;8916;47.086;15.920;2022-11-20T14:38:31;10.60;;;7.60;;
17595;SDS011;8916;47.086;15.920;2022-11-20T14:41:07;10.43;;;7.28;;
17595;SDS011;8916;47.086;15.920;2022-11-20T14:43:46;9.50;;;7.07;;
17595;SDS011;8916;47.086;15.920;2022-11-20T14:46:19;9.98;;;7.00;;
17595;SDS011;8916;47.086;15.920;2022-11-20T14:48:49;8.70;;;6.60;;
17595;SDS011;8916;47.086;15.920;2022-11-20T14:51:23;9.77;;;6.43;;
17595;SDS011;8916;47.086;15.920;2022-11-20T14:54:11;8.30;;;5.45;;
17595;SDS011;8916;47.086;15.920;2022-11-20T14:56:42;8.70;;;4.95;;
17595;SDS011;8916;47.086;15.920;2022-11-20T14:59:23;8.07;;;4.57;;
17595;SDS011;8916;47.086;15.920;2022-11-20T15:01:54;6.63;;;4.68;;
17595;SDS011;8916;47.086;15.920;2022-11-20T15:04:25;8.45;;;5.28;;
17595;SDS011;8916;47.086;15.920;2022-11-20T15:06:55;7.40;;;5.18;;
17595;SDS011;8916;47.086;15.920;2022-11-20T15:09:25;9.32;;;6.28;;
17595;SDS011;8916;47.086;15.920;2022-11-20T15:11:55;11.38;;;7.30;;
17595;SDS011;8916;47.086;15.920;2022-11-20T15:14:30;10.88;;;6.70;;
17595;SDS011;8916;47.086;15.920;2022-11-20T15:17:01;12.02;;;6.72;;
17595;SDS011;8916;47.086;15.920;2022-11-20T15:19:30;11.77;;;7.32;;
17595;SDS011;8916;47.086;15.920;2022-11-20T15:21:59;11.70;;;7.57;;